sensor_id;sensor_type;location;lat;lon;timestamp;temperature;humidity
8882;DHT22;4477;48.736;9.176;2023-04-25T13:04:17;7.40;93.00
8882;DHT22;4477;48.736;9.176;2023-04-25T13:06:46;8.70;99.90
8882;DHT22;4477;48.736;9.176;2023-04-25T13:09:13;9.00;99.90
8882;DHT22;4477;48.736;9.176;2023-04-25T13:11:41;9.10;99.90
8882;DHT22;4477;48.736;9.176;2023-04-25T13:14:07;9.30;99.90
8882;DHT22;4477;48.736;9.176;2023-04-25T14:13:20;9.80;99.90
8882;DHT22;4477;48.736;9.176;2023-04-25T15:12:21;14.60;87.80
8882;DHT22;4477;48.736;9.176;2023-04-25T15:14:48;17.10;66.70
8882;DHT22;4477;48.736;9.176;2023-04-25T15:17:15;17.70;64.90
8882;DHT22;4477;48.736;9.176;2023-04-25T15:19:42;17.10;66.30
8882;DHT22;4477;48.736;9.176;2023-04-25T15:22:10;18.00;61.30
8882;DHT22;4477;48.736;9.176;2023-04-25T18:11:54;19.30;60.00
8882;DHT22;4477;48.736;9.176;2023-04-25T18:14:22;6.10;99.90
8882;DHT22;4477;48.736;9.176;2023-04-25T18:16:51;5.90;99.90
8882;DHT22;4477;48.736;9.176;2023-04-25T18:19:18;5.80;99.90
8882;DHT22;4477;48.736;9.176;2023-04-25T18:21:47;5.70;99.90
8882;DHT22;4477;48.736;9.176;2023-04-25T18:24:15;5.60;99.90
8882;DHT22;4477;48.736;9.176;2023-04-25T18:26:42;5.50;99.90
8882;DHT22;4477;48.736;9.176;2023-04-25T18:29:11;5.50;99.90
8882;DHT22;4477;48.736;9.176;2023-04-25T18:31:40;5.50;99.90
8882;DHT22;4477;48.736;9.176;2023-04-25T18:34:07;5.40;99.90
8882;DHT22;4477;48.736;9.176;2023-04-25T18:36:34;5.40;99.90
8882;DHT22;4477;48.736;9.176;2023-04-25T18:39:01;5.30;99.90
8882;DHT22;4477;48.736;9.176;2023-04-25T18:41:30;5.20;99.90
8882;DHT22;4477;48.736;9.176;2023-04-25T18:43:58;5.20;99.90
8882;DHT22;4477;48.736;9.176;2023-04-25T18:46:27;5.20;99.90
8882;DHT22;4477;48.736;9.176;2023-04-25T18:48:56;5.20;99.90
8882;DHT22;4477;48.736;9.176;2023-04-25T18:51:23;5.20;99.90
8882;DHT22;4477;48.736;9.176;2023-04-25T18:53:52;5.10;99.90
8882;DHT22;4477;48.736;9.176;2023-04-25T18:56:19;5.00;99.90
8882;DHT22;4477;48.736;9.176;2023-04-25T18:58:47;5.00;99.90
8882;DHT22;4477;48.736;9.176;2023-04-25T19:01:15;5.00;99.90
8882;DHT22;4477;48.736;9.176;2023-04-25T19:03:42;4.90;99.90
8882;DHT22;4477;48.736;9.176;2023-04-25T19:06:10;4.90;99.90
8882;DHT22;4477;48.736;9.176;2023-04-25T19:08:37;4.90;99.90
8882;DHT22;4477;48.736;9.176;2023-04-25T19:11:04;4.90;99.90
8882;DHT22;4477;48.736;9.176;2023-04-25T19:13:31;5.00;99.90
8882;DHT22;4477;48.736;9.176;2023-04-25T19:15:59;5.00;99.90
8882;DHT22;4477;48.736;9.176;2023-04-25T19:18:26;5.00;99.90
8882;DHT22;4477;48.736;9.176;2023-04-25T19:20:53;5.00;99.90
8882;DHT22;4477;48.736;9.176;2023-04-25T19:23:21;5.00;99.90
8882;DHT22;4477;48.736;9.176;2023-04-25T19:25:50;5.00;99.90
8882;DHT22;4477;48.736;9.176;2023-04-25T19:28:17;5.00;99.90
8882;DHT22;4477;48.736;9.176;2023-04-25T19:30:44;5.00;99.90
8882;DHT22;4477;48.736;9.176;2023-04-25T19:33:11;5.10;99.90
8882;DHT22;4477;48.736;9.176;2023-04-25T19:35:38;5.10;99.90
8882;DHT22;4477;48.736;9.176;2023-04-25T19:38:05;5.00;99.90
8882;DHT22;4477;48.736;9.176;2023-04-25T19:40:34;5.00;99.90
8882;DHT22;4477;48.736;9.176;2023-04-25T19:43:01;4.90;99.90
8882;DHT22;4477;48.736;9.176;2023-04-25T19:45:29;4.90;99.90
8882;DHT22;4477;48.736;9.176;2023-04-25T19:47:58;4.90;99.90
8882;DHT22;4477;48.736;9.176;2023-04-25T19:50:25;4.80;99.90
8882;DHT22;4477;48.736;9.176;2023-04-25T19:52:52;4.80;99.90
8882;DHT22;4477;48.736;9.176;2023-04-25T19:55:19;4.80;99.90
8882;DHT22;4477;48.736;9.176;2023-04-25T19:57:48;4.90;99.90
8882;DHT22;4477;48.736;9.176;2023-04-25T20:00:16;4.90;99.90
8882;DHT22;4477;48.736;9.176;2023-04-25T20:02:44;4.90;99.90
8882;DHT22;4477;48.736;9.176;2023-04-25T20:05:12;4.80;99.90
8882;DHT22;4477;48.736;9.176;2023-04-25T20:07:40;4.90;99.90
8882;DHT22;4477;48.736;9.176;2023-04-25T20:10:08;4.90;99.90
8882;DHT22;4477;48.736;9.176;2023-04-25T20:12:37;4.90;99.90
8882;DHT22;4477;48.736;9.176;2023-04-25T20:15:07;4.80;99.90
8882;DHT22;4477;48.736;9.176;2023-04-25T20:17:34;4.90;99.90
8882;DHT22;4477;48.736;9.176;2023-04-25T20:20:01;4.90;99.90
8882;DHT22;4477;48.736;9.176;2023-04-25T20:22:30;4.90;99.90
8882;DHT22;4477;48.736;9.176;2023-04-25T20:25:02;4.80;99.90
8882;DHT22;4477;48.736;9.176;2023-04-25T20:27:29;4.80;99.90
8882;DHT22;4477;48.736;9.176;2023-04-25T20:29:56;4.80;99.90
8882;DHT22;4477;48.736;9.176;2023-04-25T20:32:24;4.80;99.90
8882;DHT22;4477;48.736;9.176;2023-04-25T20:34:51;4.90;99.90
8882;DHT22;4477;48.736;9.176;2023-04-25T20:37:18;4.90;99.90
8882;DHT22;4477;48.736;9.176;2023-04-25T20:39:44;4.90;99.90
8882;DHT22;4477;48.736;9.176;2023-04-25T20:42:11;4.80;99.90
8882;DHT22;4477;48.736;9.176;2023-04-25T20:44:38;4.80;99.90
8882;DHT22;4477;48.736;9.176;2023-04-25T20:47:05;4.80;99.90
8882;DHT22;4477;48.736;9.176;2023-04-25T20:49:34;4.80;99.90
8882;DHT22;4477;48.736;9.176;2023-04-25T20:52:01;4.80;99.90
8882;DHT22;4477;48.736;9.176;2023-04-25T20:54:28;4.80;99.90
8882;DHT22;4477;48.736;9.176;2023-04-25T20:56:56;4.80;99.90
8882;DHT22;4477;48.736;9.176;2023-04-25T20:59:24;4.80;99.90
8882;DHT22;4477;48.736;9.176;2023-04-25T21:01:51;4.80;99.90
8882;DHT22;4477;48.736;9.176;2023-04-25T21:04:18;4.80;99.90
8882;DHT22;4477;48.736;9.176;2023-04-25T21:06:47;4.80;99.90
8882;DHT22;4477;48.736;9.176;2023-04-25T21:09:15;4.80;99.90
8882;DHT22;4477;48.736;9.176;2023-04-25T21:11:42;4.90;99.90
8882;DHT22;4477;48.736;9.176;2023-04-25T21:14:10;4.80;99.90
8882;DHT22;4477;48.736;9.176;2023-04-25T21:16:37;4.80;99.90
8882;DHT22;4477;48.736;9.176;2023-04-25T21:19:05;4.80;99.90
8882;DHT22;4477;48.736;9.176;2023-04-25T21:21:31;4.80;99.90
8882;DHT22;4477;48.736;9.176;2023-04-25T21:24:00;4.90;99.90
8882;DHT22;4477;48.736;9.176;2023-04-25T21:26:26;4.80;99.90
8882;DHT22;4477;48.736;9.176;2023-04-25T21:28:53;4.80;99.90
8882;DHT22;4477;48.736;9.176;2023-04-25T21:31:21;4.80;99.90
8882;DHT22;4477;48.736;9.176;2023-04-25T21:33:47;4.80;99.90
8882;DHT22;4477;48.736;9.176;2023-04-25T21:36:14;4.80;99.90
8882;DHT22;4477;48.736;9.176;2023-04-25T21:38:41;4.80;99.90
8882;DHT22;4477;48.736;9.176;2023-04-25T21:41:09;4.80;99.90
8882;DHT22;4477;48.736;9.176;2023-04-25T21:43:36;4.80;99.90
8882;DHT22;4477;48.736;9.176;2023-04-25T21:46:03;4.80;99.90
8882;DHT22;4477;48.736;9.176;2023-04-25T21:48:30;4.80;99.90
8882;DHT22;4477;48.736;9.176;2023-04-25T21:50:57;4.70;99.90
8882;DHT22;4477;48.736;9.176;2023-04-25T21:53:24;4.70;99.90
8882;DHT22;4477;48.736;9.176;2023-04-25T21:55:51;4.70;99.90
8882;DHT22;4477;48.736;9.176;2023-04-25T21:58:19;4.80;99.90
8882;DHT22;4477;48.736;9.176;2023-04-25T22:00:46;4.80;99.90
8882;DHT22;4477;48.736;9.176;2023-04-25T22:03:13;4.80;99.90
8882;DHT22;4477;48.736;9.176;2023-04-25T22:05:40;4.70;99.90
8882;DHT22;4477;48.736;9.176;2023-04-25T22:08:07;4.70;99.90
8882;DHT22;4477;48.736;9.176;2023-04-25T22:10:34;4.70;99.90
8882;DHT22;4477;48.736;9.176;2023-04-25T22:13:02;4.70;99.90
8882;DHT22;4477;48.736;9.176;2023-04-25T22:15:31;4.60;99.90
8882;DHT22;4477;48.736;9.176;2023-04-25T22:17:59;4.60;99.90
8882;DHT22;4477;48.736;9.176;2023-04-25T22:20:28;4.50;99.90
8882;DHT22;4477;48.736;9.176;2023-04-25T22:22:55;4.60;99.90
8882;DHT22;4477;48.736;9.176;2023-04-25T22:25:22;4.60;99.90
8882;DHT22;4477;48.736;9.176;2023-04-25T22:27:49;4.60;99.90
8882;DHT22;4477;48.736;9.176;2023-04-25T22:30:16;4.60;99.90
8882;DHT22;4477;48.736;9.176;2023-04-25T22:32:44;4.60;99.90
8882;DHT22;4477;48.736;9.176;2023-04-25T22:35:11;4.60;99.90
8882;DHT22;4477;48.736;9.176;2023-04-25T22:37:42;4.60;99.90
8882;DHT22;4477;48.736;9.176;2023-04-25T22:40:10;4.60;99.90
8882;DHT22;4477;48.736;9.176;2023-04-25T22:42:38;4.60;99.90
8882;DHT22;4477;48.736;9.176;2023-04-25T22:45:05;4.60;99.90
8882;DHT22;4477;48.736;9.176;2023-04-25T22:47:33;4.60;99.90
8882;DHT22;4477;48.736;9.176;2023-04-25T22:50:02;4.60;99.90
8882;DHT22;4477;48.736;9.176;2023-04-25T22:52:31;4.60;99.90
8882;DHT22;4477;48.736;9.176;2023-04-25T22:54:59;4.60;99.90
8882;DHT22;4477;48.736;9.176;2023-04-25T22:57:27;4.60;99.90
8882;DHT22;4477;48.736;9.176;2023-04-25T22:59:54;4.60;99.90
8882;DHT22;4477;48.736;9.176;2023-04-25T23:02:22;4.60;99.90
8882;DHT22;4477;48.736;9.176;2023-04-25T23:04:49;4.50;99.90
8882;DHT22;4477;48.736;9.176;2023-04-25T23:07:20;4.60;99.90
8882;DHT22;4477;48.736;9.176;2023-04-25T23:09:46;4.50;99.90
8882;DHT22;4477;48.736;9.176;2023-04-25T23:12:16;4.50;99.90
8882;DHT22;4477;48.736;9.176;2023-04-25T23:14:43;4.50;99.90
8882;DHT22;4477;48.736;9.176;2023-04-25T23:17:10;4.50;99.90
8882;DHT22;4477;48.736;9.176;2023-04-25T23:19:37;4.50;99.90
8882;DHT22;4477;48.736;9.176;2023-04-25T23:22:04;4.50;99.90
8882;DHT22;4477;48.736;9.176;2023-04-25T23:24:34;4.50;99.90
8882;DHT22;4477;48.736;9.176;2023-04-25T23:27:01;4.50;99.90
8882;DHT22;4477;48.736;9.176;2023-04-25T23:29:28;4.50;99.90
8882;DHT22;4477;48.736;9.176;2023-04-25T23:31:56;4.50;99.90
8882;DHT22;4477;48.736;9.176;2023-04-25T23:34:23;4.40;99.90
8882;DHT22;4477;48.736;9.176;2023-04-25T23:36:50;4.40;99.90
8882;DHT22;4477;48.736;9.176;2023-04-25T23:39:17;4.40;99.90
8882;DHT22;4477;48.736;9.176;2023-04-25T23:41:45;4.40;99.90
8882;DHT22;4477;48.736;9.176;2023-04-25T23:44:12;4.30;99.90
8882;DHT22;4477;48.736;9.176;2023-04-25T23:46:39;4.30;99.90
8882;DHT22;4477;48.736;9.176;2023-04-25T23:51:33;4.20;99.90
8882;DHT22;4477;48.736;9.176;2023-04-25T23:54:00;4.10;99.90
8882;DHT22;4477;48.736;9.176;2023-04-25T23:56:27;4.00;99.90
8882;DHT22;4477;48.736;9.176;2023-04-25T23:58:55;4.00;99.90
